Time;durP1;ratioP1;P1;durP2;ratioP2;P2;SDS_P1;SDS_P2;PMS_P1;PMS_P2;Temp;Humidity;BMP_temperature;BMP_pressure;BME280_temperature;BME280_humidity;BME280_pressure;Samples;Min_cycle;Max_cycle;Signal;HPM_P1;HPM_P2
2022/04/10 00:02:00;;;;;;;15.98;9.50;;;8.80;59.00;;;;;;7376368;19;20395;-83
2022/04/10 00:04:29;;;;;;;15.07;9.35;;;8.80;59.00;;;;;;7375699;19;20395;-83
2022/04/10 00:06:57;;;;;;;16.25;9.60;;;8.70;58.70;;;;;;7376420;19;20025;-82
2022/04/10 00:09:26;;;;;;;18.38;9.50;;;8.80;59.00;;;;;;7397537;19;20022;-83
2022/04/10 00:11:55;;;;;;;14.50;10.13;;;8.70;59.20;;;;;;7373946;19;20441;-82
2022/04/10 00:14:26;;;;;;;18.50;11.63;;;8.70;58.90;;;;;;7376173;19;20078;-83
2022/04/10 00:16:56;;;;;;;17.23;10.05;;;8.60;58.70;;;;;;7376487;19;20070;-83
2022/04/10 00:19:24;;;;;;;16.63;10.80;;;8.60;58.70;;;;;;7376175;19;20018;-83
2022/04/10 00:21:53;;;;;;;20.27;10.95;;;8.50;58.80;;;;;;7375311;19;20022;-82
2022/04/10 00:24:25;;;;;;;17.35;10.38;;;8.50;59.00;;;;;;7395099;19;20025;-83
2022/04/10 00:26:54;;;;;;;14.80;9.15;;;8.50;58.80;;;;;;7376187;19;20018;-83
2022/04/10 00:29:22;;;;;;;15.55;9.63;;;8.40;58.60;;;;;;7376067;19;20067;-84
2022/04/10 00:31:54;;;;;;;15.43;9.93;;;8.40;58.80;;;;;;7376203;19;20097;-83
2022/04/10 00:34:23;;;;;;;18.00;10.00;;;8.40;58.80;;;;;;7375007;19;20019;-84
2022/04/10 00:36:51;;;;;;;16.92;10.13;;;8.40;59.00;;;;;;7376179;19;20102;-83
2022/04/10 00:39:20;;;;;;;23.92;11.60;;;8.40;59.70;;;;;;7394107;19;20336;-83
2022/04/10 00:41:49;;;;;;;22.13;11.60;;;8.40;59.00;;;;;;7373520;19;20110;-83
2022/04/10 00:44:21;;;;;;;23.67;13.27;;;8.40;59.00;;;;;;7373844;19;20010;-85
2022/04/10 00:46:50;;;;;;;22.83;11.57;;;8.40;58.90;;;;;;7375119;19;20406;-82
2022/04/10 00:49:21;;;;;;;15.85;10.43;;;8.30;58.70;;;;;;7373177;19;20514;-82
2022/04/10 00:51:52;;;;;;;20.40;11.73;;;8.30;58.60;;;;;;7379386;19;20026;-82
2022/04/10 00:54:24;;;;;;;19.58;11.27;;;8.30;58.70;;;;;;7397139;19;20014;-83
2022/04/10 00:56:54;;;;;;;21.95;11.52;;;8.30;58.60;;;;;;7375018;19;20015;-83
2022/04/10 00:59:23;;;;;;;27.83;14.13;;;8.30;58.80;;;;;;7373778;19;20018;-84
2022/04/10 01:01:52;;;;;;;22.83;13.27;;;8.30;58.80;;;;;;7372977;19;20045;-83
2022/04/10 01:04:23;;;;;;;19.77;12.40;;;8.20;58.90;;;;;;7371140;19;20085;-83
2022/04/10 01:06:54;;;;;;;23.70;11.98;;;8.20;59.30;;;;;;7374064;19;20081;-82
2022/04/10 01:09:22;;;;;;;20.65;12.50;;;8.10;59.20;;;;;;7392056;19;20032;-83
2022/04/10 01:11:51;;;;;;;20.23;12.63;;;8.10;59.10;;;;;;7372074;19;20019;-84
2022/04/10 01:14:20;;;;;;;20.15;12.23;;;8.00;59.20;;;;;;7372677;19;20025;-84
2022/04/10 01:16:49;;;;;;;20.38;12.00;;;8.00;59.30;;;;;;7373713;19;20040;-82
2022/04/10 01:19:19;;;;;;;19.45;10.80;;;8.00;59.60;;;;;;7373494;19;20032;-84
2022/04/10 01:21:53;;;;;;;23.38;12.05;;;8.00;59.30;;;;;;7396403;19;20371;-84
2022/04/10 01:24:24;;;;;;;22.25;13.48;;;8.00;59.10;;;;;;7372690;19;20093;-84
2022/04/10 01:26:53;;;;;;;21.02;10.93;;;7.90;59.00;;;;;;7373308;19;20339;-83
2022/04/10 01:29:21;;;;;;;20.30;12.18;;;7.90;59.10;;;;;;7374677;19;20183;-83
2022/04/10 01:31:50;;;;;;;22.48;12.88;;;7.90;59.20;;;;;;7373742;19;20078;-84
2022/04/10 01:34:19;;;;;;;19.33;11.63;;;7.90;59.30;;;;;;7373294;19;20018;-83
2022/04/10 01:36:48;;;;;;;21.50;12.65;;;7.90;59.40;;;;;;7395592;19;20027;-84
2022/04/10 01:39:17;;;;;;;19.55;12.73;;;7.80;59.20;;;;;;7373212;19;20572;-83
2022/04/10 01:41:50;;;;;;;24.52;12.93;;;7.80;59.20;;;;;;7370888;19;20086;-84
2022/04/10 01:44:19;;;;;;;23.70;13.68;;;7.80;59.10;;;;;;7372123;19;20019;-84
2022/04/10 01:46:48;;;;;;;20.80;14.07;;;7.70;59.10;;;;;;7373849;19;20442;-84
2022/04/10 01:49:16;;;;;;;23.30;14.10;;;7.70;59.40;;;;;;7373292;19;20078;-84
2022/04/10 01:51:45;;;;;;;23.27;13.13;;;7.70;59.60;;;;;;7396253;19;20046;-84
2022/04/10 01:54:14;;;;;;;22.10;13.90;;;7.70;59.60;;;;;;7369586;19;20423;-84
2022/04/10 01:56:43;;;;;;;21.92;13.73;;;7.70;59.40;;;;;;7371474;19;20011;-83
2022/04/10 01:59:14;;;;;;;23.88;12.77;;;7.70;59.10;;;;;;7371475;19;20021;-84
2022/04/10 02:01:43;;;;;;;21.63;12.77;;;7.60;59.20;;;;;;7371104;19;20026;-83
2022/04/10 02:04:12;;;;;;;22.52;12.82;;;7.60;59.40;;;;;;7372426;19;20022;-83
2022/04/10 02:06:40;;;;;;;21.08;12.73;;;7.60;59.40;;;;;;7391816;19;20085;-83
2022/04/10 02:09:10;;;;;;;19.95;12.93;;;7.60;59.70;;;;;;7371697;19;20038;-83
2022/04/10 02:11:39;;;;;;;20.63;13.43;;;7.60;59.60;;;;;;7371962;19;20032;-84
2022/04/10 02:14:08;;;;;;;20.60;12.13;;;7.60;59.50;;;;;;7373638;19;20020;-84
2022/04/10 02:16:39;;;;;;;20.38;12.55;;;7.60;59.50;;;;;;7374791;19;20011;-84
2022/04/10 02:19:08;;;;;;;20.45;12.90;;;7.50;59.50;;;;;;7374312;19;20482;-84
2022/04/10 02:21:37;;;;;;;24.30;13.00;;;7.60;59.50;;;;;;7400908;19;20015;-84
2022/04/10 02:24:06;;;;;;;21.00;12.32;;;7.60;59.60;;;;;;7379175;19;20018;-83
2022/04/10 02:26:35;;;;;;;23.73;13.35;;;7.60;59.60;;;;;;7378165;19;20011;-84
2022/04/10 02:29:04;;;;;;;22.17;12.23;;;7.60;59.30;;;;;;7380192;19;20349;-84
2022/04/10 02:31:32;;;;;;;19.33;11.77;;;7.60;59.30;;;;;;7377496;19;20018;-83
2022/04/10 02:34:04;;;;;;;21.67;12.40;;;7.60;59.30;;;;;;7378042;19;20022;-84
2022/04/10 02:36:32;;;;;;;17.20;11.70;;;7.60;59.30;;;;;;7401233;19;20026;-84
2022/04/10 02:39:01;;;;;;;17.60;11.85;;;7.50;59.20;;;;;;7378202;19;20022;-85
2022/04/10 02:41:30;;;;;;;16.30;11.00;;;7.40;58.90;;;;;;7378479;19;20014;-84
2022/04/10 02:43:58;;;;;;;20.40;12.27;;;7.40;59.00;;;;;;7377912;19;20022;-84
2022/04/10 02:46:27;;;;;;;19.58;11.60;;;7.30;59.50;;;;;;7379417;19;20026;-84
2022/04/10 02:48:56;;;;;;;20.38;11.07;;;7.30;59.60;;;;;;7378341;19;20098;-84
2022/04/10 02:51:27;;;;;;;20.38;11.40;;;7.30;59.60;;;;;;7399067;19;20086;-84
2022/04/10 02:53:56;;;;;;;17.65;10.68;;;7.40;59.50;;;;;;7375981;19;20040;-84
2022/04/10 02:56:24;;;;;;;18.08;11.70;;;7.40;60.00;;;;;;7375379;19;20425;-84
2022/04/10 02:58:53;;;;;;;17.33;11.93;;;7.40;59.50;;;;;;7377189;19;20032;-84
2022/04/10 03:01:22;;;;;;;18.92;12.23;;;7.40;59.60;;;;;;7379045;19;20044;-84
2022/04/10 03:03:51;;;;;;;20.17;12.75;;;7.30;59.80;;;;;;7380717;19;20695;-83
2022/04/10 03:06:20;;;;;;;18.52;11.98;;;7.40;59.60;;;;;;7399560;19;20467;-84
2022/04/10 03:08:51;;;;;;;24.00;12.68;;;7.40;59.80;;;;;;7375169;19;20444;-85
2022/04/10 03:11:20;;;;;;;21.30;12.50;;;7.30;59.40;;;;;;7378087;19;20022;-84
2022/04/10 03:13:48;;;;;;;21.52;12.60;;;7.30;59.40;;;;;;7379583;19;20498;-84
2022/04/10 03:16:18;;;;;;;22.67;13.15;;;7.30;59.30;;;;;;7377514;19;20038;-84
2022/04/10 03:18:46;;;;;;;19.75;12.85;;;7.30;59.40;;;;;;7402928;19;20051;-84
2022/04/10 03:21:15;;;;;;;22.80;13.75;;;7.20;59.50;;;;;;7387205;19;20052;-83
2022/04/10 03:23:44;;;;;;;18.95;12.13;;;7.20;59.60;;;;;;7395840;19;20007;-83
2022/04/10 03:26:15;;;;;;;21.13;12.98;;;7.20;59.70;;;;;;7406680;19;20018;-84
2022/04/10 03:28:44;;;;;;;24.83;13.20;;;7.20;60.10;;;;;;7405172;19;20034;-84
2022/04/10 03:31:13;;;;;;;24.55;12.55;;;7.20;60.10;;;;;;7394947;19;20057;-83
2022/04/10 03:33:41;;;;;;;19.80;12.27;;;7.20;60.10;;;;;;7405135;19;20022;-84
2022/04/10 03:36:10;;;;;;;19.83;11.77;;;7.20;60.50;;;;;;7381110;19;20745;-84
2022/04/10 03:38:39;;;;;;;19.65;11.40;;;7.20;60.10;;;;;;7379157;19;20018;-84
2022/04/10 03:41:08;;;;;;;20.15;10.98;;;7.20;60.10;;;;;;7378273;19;20023;-84
2022/04/10 03:43:39;;;;;;;18.30;11.63;;;7.20;59.80;;;;;;7379106;19;20034;-83
2022/04/10 03:46:08;;;;;;;17.08;10.23;;;7.20;59.70;;;;;;7377958;19;20058;-83
2022/04/10 03:48:37;;;;;;;15.80;9.40;;;7.20;59.40;;;;;;7397862;19;20028;-84
2022/04/10 03:51:05;;;;;;;16.67;9.85;;;7.10;59.50;;;;;;7378370;19;20482;-85
2022/04/10 03:53:36;;;;;;;15.77;9.80;;;7.10;59.80;;;;;;7375263;19;20006;-85
2022/04/10 03:56:05;;;;;;;17.43;9.63;;;7.20;60.10;;;;;;7376028;19;20019;-85
2022/04/10 03:58:34;;;;;;;16.77;9.82;;;7.20;60.10;;;;;;7374999;19;20303;-84
2022/04/10 04:01:05;;;;;;;16.40;10.88;;;7.20;60.30;;;;;;7376237;19;20902;-85
2022/04/10 04:03:34;;;;;;;16.70;10.20;;;7.20;59.60;;;;;;7397302;19;20019;-84
2022/04/10 04:06:03;;;;;;;17.52;10.20;;;7.10;59.50;;;;;;7375605;19;20110;-84
2022/04/10 04:08:31;;;;;;;16.85;10.25;;;7.10;59.40;;;;;;7375404;19;20531;-85
2022/04/10 04:11:00;;;;;;;20.35;10.48;;;7.10;59.30;;;;;;7375283;19;20030;-85
2022/04/10 04:13:29;;;;;;;18.17;10.13;;;7.00;59.50;;;;;;7374709;19;20070;-84
2022/04/10 04:15:57;;;;;;;19.50;9.02;;;7.00;59.80;;;;;;7375011;19;20037;-85
2022/04/10 04:18:29;;;;;;;17.85;8.35;;;7.00;59.70;;;;;;7397172;19;20498;-84
2022/04/10 04:20:57;;;;;;;15.15;8.85;;;7.00;59.30;;;;;;7374804;19;20442;-84
2022/04/10 04:23:26;;;;;;;18.30;10.27;;;6.90;59.50;;;;;;7373804;19;20021;-84
2022/04/10 04:25:55;;;;;;;18.33;8.07;;;6.80;59.50;;;;;;7374264;19;20589;-83
2022/04/10 04:28:23;;;;;;;13.60;7.93;;;6.80;59.80;;;;;;7374289;19;20528;-84
2022/04/10 04:30:52;;;;;;;14.85;8.85;;;6.90;60.10;;;;;;7375766;19;20629;-82
2022/04/10 04:33:21;;;;;;;14.90;8.32;;;6.90;60.20;;;;;;7394848;19;20018;-84
2022/04/10 04:35:52;;;;;;;15.77;9.60;;;6.90;59.80;;;;;;7373106;19;20038;-83
2022/04/10 04:38:21;;;;;;;22.35;10.68;;;6.90;59.60;;;;;;7373131;19;20410;-83
2022/04/10 04:40:49;;;;;;;17.83;10.18;;;6.90;59.90;;;;;;7372122;19;20018;-85
2022/04/10 04:43:18;;;;;;;17.52;9.85;;;6.90;59.90;;;;;;7372807;19;20020;-84
2022/04/10 04:45:47;;;;;;;18.58;9.23;;;6.90;60.00;;;;;;7396298;19;20014;-84
2022/04/10 04:48:15;;;;;;;15.45;9.88;;;6.90;60.90;;;;;;7374406;19;20097;-84
2022/04/10 04:50:47;;;;;;;15.35;9.45;;;6.90;59.90;;;;;;7374299;19;20078;-84
2022/04/10 04:53:18;;;;;;;16.65;10.55;;;6.90;60.00;;;;;;7372291;19;20022;-84
2022/04/10 04:55:46;;;;;;;;;;;6.90;59.80;;;;;;7375299;19;20573;-84
2022/04/10 04:58:15;;;;;;;18.80;10.98;;;6.90;59.70;;;;;;7373933;19;19931;-85
2022/04/10 05:00:44;;;;;;;21.00;11.38;;;6.80;59.70;;;;;;7394387;19;20605;-84
2022/04/10 05:03:12;;;;;;;17.73;10.30;;;6.70;59.80;;;;;;7371376;19;20022;-84
2022/04/10 05:05:41;;;;;;;20.75;10.25;;;6.70;60.40;;;;;;7373934;19;20035;-84
2022/04/10 05:08:10;;;;;;;15.30;10.23;;;6.70;60.20;;;;;;7375162;19;20753;-84
2022/04/10 05:10:41;;;;;;;23.17;11.20;;;6.60;60.40;;;;;;7375011;19;20353;-84
2022/04/10 05:13:10;;;;;;;17.77;9.77;;;6.60;60.60;;;;;;7375424;19;20669;-85
2022/04/10 05:15:39;;;;;;;16.83;9.75;;;6.60;60.50;;;;;;7392907;19;20018;-84
2022/04/10 05:18:08;;;;;;;13.23;9.10;;;6.60;60.40;;;;;;7372346;19;20014;-84
2022/04/10 05:20:38;;;;;;;24.40;10.73;;;6.60;60.40;;;;;;7373383;19;20015;-84
2022/04/10 05:23:07;;;;;;;15.55;9.52;;;6.60;60.30;;;;;;7374225;19;20042;-85
2022/04/10 05:25:36;;;;;;;15.13;9.20;;;6.60;60.30;;;;;;7373178;19;20137;-84
2022/04/10 05:28:08;;;;;;;17.85;9.43;;;6.70;60.20;;;;;;7373233;19;20022;-84
2022/04/10 05:30:37;;;;;;;17.33;10.32;;;6.70;60.00;;;;;;7393173;19;20086;-85
2022/04/10 05:33:05;;;;;;;24.40;10.98;;;6.70;60.20;;;;;;7373560;19;20039;-85
2022/04/10 05:35:34;;;;;;;20.08;10.07;;;6.70;60.20;;;;;;7370873;19;20094;-84
2022/04/10 05:38:03;;;;;;;17.88;9.88;;;6.60;60.30;;;;;;7373344;19;20011;-85
2022/04/10 05:40:32;;;;;;;19.00;10.35;;;6.70;60.30;;;;;;7372170;19;20098;-86
2022/04/10 05:43:01;;;;;;;14.73;10.18;;;6.70;60.20;;;;;;7372288;19;20023;-85
2022/04/10 05:45:33;;;;;;;23.17;10.52;;;6.70;60.50;;;;;;7393206;19;20014;-85
2022/04/10 05:48:01;;;;;;;18.77;11.07;;;6.70;60.40;;;;;;7371999;19;20717;-84
2022/04/10 05:50:30;;;;;;;18.02;11.52;;;6.70;60.70;;;;;;7372521;19;20085;-85
2022/04/10 05:52:59;;;;;;;18.77;10.63;;;6.80;60.80;;;;;;7372394;19;20017;-85
2022/04/10 05:55:28;;;;;;;19.45;10.98;;;6.80;60.80;;;;;;7376553;19;20022;-85
2022/04/10 05:57:57;;;;;;;23.00;11.60;;;6.80;60.80;;;;;;7379061;19;20022;-84
2022/04/10 06:00:27;;;;;;;20.15;10.93;;;6.90;60.80;;;;;;7400625;19;20053;-85
2022/04/10 06:02:58;;;;;;;17.67;10.63;;;6.90;60.50;;;;;;7378176;19;20023;-83
2022/04/10 06:05:27;;;;;;;22.15;11.70;;;6.90;60.80;;;;;;7377991;19;20031;-84
2022/04/10 06:07:56;;;;;;;21.40;12.50;;;7.00;61.10;;;;;;7377747;19;20024;-85
2022/04/10 06:10:25;;;;;;;23.40;12.00;;;7.00;61.20;;;;;;7377116;19;20535;-85
2022/04/10 06:12:53;;;;;;;25.52;12.82;;;7.00;61.50;;;;;;7378044;19;20089;-84
2022/04/10 06:15:22;;;;;;;24.05;12.55;;;7.00;61.50;;;;;;7398628;19;20023;-84
2022/04/10 06:17:51;;;;;;;30.17;13.90;;;7.00;61.10;;;;;;7380174;19;20135;-84
2022/04/10 06:20:23;;;;;;;28.63;14.73;;;7.00;61.20;;;;;;7378274;19;20497;-84
2022/04/10 06:22:51;;;;;;;30.75;14.18;;;7.10;61.10;;;;;;7378128;19;20082;-85
2022/04/10 06:25:20;;;;;;;27.73;14.23;;;7.10;61.30;;;;;;7378510;19;20113;-85
2022/04/10 06:27:49;;;;;;;24.90;13.88;;;7.10;61.60;;;;;;7396622;19;20018;-85
2022/04/10 06:30:17;;;;;;;22.15;12.52;;;7.20;62.20;;;;;;7379559;19;20457;-85
2022/04/10 06:32:46;;;;;;;28.83;13.50;;;7.20;62.60;;;;;;7378989;19;20014;-85
2022/04/10 06:35:15;;;;;;;31.77;16.13;;;7.30;62.30;;;;;;7376721;19;20031;-84
2022/04/10 06:37:46;;;;;;;24.27;13.25;;;7.30;62.10;;;;;;7378228;19;20023;-85
2022/04/10 06:40:15;;;;;;;24.52;11.90;;;7.40;62.20;;;;;;7376076;19;20022;-84
2022/04/10 06:42:44;;;;;;;22.02;10.70;;;7.40;62.20;;;;;;7400598;19;20089;-85
2022/04/10 06:45:13;;;;;;;17.95;10.27;;;7.50;62.20;;;;;;7379407;19;20114;-84
2022/04/10 06:47:41;;;;;;;17.60;10.82;;;7.50;63.10;;;;;;7376361;19;20011;-84
2022/04/10 06:50:14;;;;;;;20.67;9.95;;;7.60;62.60;;;;;;7379332;19;20070;-84
2022/04/10 06:52:45;;;;;;;20.95;10.70;;;7.70;62.70;;;;;;7382337;19;20013;-85
2022/04/10 06:55:14;;;;;;;19.40;11.40;;;7.70;62.60;;;;;;7387848;19;20068;-85
2022/04/10 06:57:43;;;;;;;21.17;10.48;;;7.80;62.60;;;;;;7428823;19;20025;-84
2022/04/10 07:00:12;;;;;;;16.33;10.25;;;7.80;62.50;;;;;;7415065;19;20014;-84
2022/04/10 07:02:41;;;;;;;20.35;10.15;;;7.90;62.60;;;;;;7412638;19;20029;-84
2022/04/10 07:05:11;;;;;;;22.75;10.68;;;7.90;62.60;;;;;;7414493;19;20022;-85
2022/04/10 07:07:39;;;;;;;24.77;10.57;;;8.00;62.80;;;;;;7411766;19;20035;-84
2022/04/10 07:10:12;;;;;;;20.00;11.07;;;8.00;63.10;;;;;;7404341;19;20018;-84
2022/04/10 07:12:40;;;;;;;19.25;10.80;;;8.10;63.20;;;;;;7413156;19;20305;-84
2022/04/10 07:15:10;;;;;;;18.70;10.73;;;8.20;63.10;;;;;;7385000;19;20002;-84
2022/04/10 07:17:39;;;;;;;24.65;13.27;;;8.30;63.10;;;;;;7381548;19;20451;-86
2022/04/10 07:20:09;;;;;;;23.55;14.05;;;8.30;63.00;;;;;;7380106;19;20119;-84
2022/04/10 07:25:22;;;;;;;23.33;12.80;;;8.40;63.00;;;;;;7378914;19;20031;-84
2022/04/10 07:27:51;;;;;;;30.67;13.57;;;8.50;63.00;;;;;;7378541;19;20014;-85
2022/04/10 07:30:20;;;;;;;73.25;30.45;;;8.60;63.10;;;;;;7398527;19;20023;-85
2022/04/10 07:32:53;;;;;;;92.60;35.58;;;8.60;63.40;;;;;;7376394;19;20010;-85
2022/04/10 07:35:22;;;;;;;59.38;26.50;;;8.70;63.60;;;;;;7375319;19;20094;-85
2022/04/10 07:37:52;;;;;;;33.00;16.42;;;8.80;63.60;;;;;;7376197;19;20019;-85
2022/04/10 07:40:23;;;;;;;26.77;13.23;;;8.90;63.60;;;;;;7376675;19;20038;-84
2022/04/10 07:42:52;;;;;;;;;;;9.00;63.70;;;;;;7379404;19;20022;-84
2022/04/10 07:48:02;;;;;;;23.92;10.93;;;9.20;64.20;;;;;;7379219;19;20006;-84
2022/04/10 07:50:31;;;;;;;19.35;11.23;;;9.30;64.20;;;;;;7382939;19;20035;-84
2022/04/10 07:53:00;;;;;;;22.80;11.05;;;9.30;64.70;;;;;;7383123;19;20014;-84
2022/04/10 07:55:31;;;;;;;19.52;9.98;;;9.40;63.50;;;;;;7382127;19;20089;-85
2022/04/10 07:58:00;;;;;;;18.55;9.80;;;9.50;62.80;;;;;;7382087;19;20021;-85
2022/04/10 08:00:32;;;;;;;16.38;8.60;;;9.60;62.30;;;;;;7402878;19;20014;-86
2022/04/10 08:03:01;;;;;;;16.75;7.65;;;9.60;61.50;;;;;;7381702;19;20070;-83
2022/04/10 08:05:30;;;;;;;12.27;6.72;;;9.70;61.20;;;;;;7379215;19;20011;-84
2022/04/10 08:07:59;;;;;;;13.23;6.78;;;9.70;60.50;;;;;;7380207;19;20023;-86
2022/04/10 08:10:31;;;;;;;31.45;7.03;;;9.80;60.30;;;;;;7379461;19;20348;-84
2022/04/10 08:13:01;;;;;;;14.55;7.43;;;9.80;60.20;;;;;;7380415;19;20023;-84
2022/04/10 08:15:30;;;;;;;16.65;7.50;;;9.90;59.80;;;;;;7401083;19;20459;-85
2022/04/10 08:17:58;;;;;;;15.23;7.78;;;9.90;59.30;;;;;;7380055;19;20113;-86
2022/04/10 08:20:27;;;;;;;14.90;8.10;;;10.00;58.80;;;;;;7379485;19;20025;-85
2022/04/10 08:22:59;;;;;;;16.92;8.80;;;10.00;58.50;;;;;;7382781;19;20011;-85
2022/04/10 08:25:30;;;;;;;22.67;8.82;;;10.00;58.40;;;;;;7380666;19;20043;-84
2022/04/10 08:28:00;;;;;;;;;;;10.10;58.00;;;;;;7381298;19;20051;-83
2022/04/10 08:30:29;;;;;;;11.40;4.85;;;10.20;57.70;;;;;;7402071;19;19927;-85
2022/04/10 08:32:58;;;;;;;14.65;5.10;;;10.20;57.30;;;;;;7386734;19;20015;-85
2022/04/10 08:35:27;;;;;;;15.20;5.70;;;10.20;57.70;;;;;;7397007;19;20017;-85
2022/04/10 08:37:57;;;;;;;9.70;6.35;;;10.30;57.30;;;;;;7390994;19;20011;-85
2022/04/10 08:40:25;;;;;;;14.95;5.88;;;10.30;57.10;;;;;;7383292;19;20715;-83
2022/04/10 08:42:57;;;;;;;11.82;6.60;;;10.30;57.20;;;;;;7375153;19;20340;-83
2022/04/10 08:45:27;;;;;;;8.70;5.75;;;10.30;56.80;;;;;;7401782;19;20039;-84
2022/04/10 08:47:58;;;;;;;16.63;6.00;;;10.40;56.60;;;;;;7379512;19;20018;-82
2022/04/10 08:50:29;;;;;;;13.45;5.55;;;10.40;56.80;;;;;;7382043;19;20035;-85
2022/04/10 08:52:59;;;;;;;13.23;5.72;;;10.40;56.10;;;;;;7389079;19;20081;-85
2022/04/10 08:55:28;;;;;;;15.15;5.28;;;10.50;56.60;;;;;;7385282;19;20023;-87
2022/04/10 08:59:37;;;;;;;12.80;4.70;;;10.50;55.80;;;;;;7415395;19;20391;-86
2022/04/10 09:02:08;;;;;;;11.43;4.93;;;10.60;55.70;;;;;;7424189;19;20026;-85
2022/04/10 09:04:38;;;;;;;10.10;4.53;;;10.60;55.40;;;;;;7429214;19;20009;-86
2022/04/10 09:07:15;;;;;;;11.65;4.88;;;10.60;55.20;;;;;;7429150;19;20022;-83
2022/04/10 09:09:56;;;;;;;14.98;4.80;;;10.60;55.30;;;;;;7448276;19;20018;-85
2022/04/10 09:12:29;;;;;;;12.00;4.80;;;10.60;55.70;;;;;;7428993;19;20019;-85
2022/04/10 09:15:11;;;;;;;15.88;5.70;;;10.70;55.80;;;;;;7426190;19;20035;-85
2022/04/10 09:18:00;;;;;;;12.60;5.18;;;10.70;55.70;;;;;;7438142;19;20598;-86
2022/04/10 09:20:32;;;;;;;14.02;5.68;;;10.70;55.70;;;;;;7376045;19;20064;-86
2022/04/10 09:26:13;;;;;;;10.90;5.53;;;10.90;55.40;;;;;;7399965;19;19915;-88
2022/04/10 09:28:58;;;;;;;13.53;6.07;;;10.80;55.30;;;;;;7428898;19;20047;-81
2022/04/10 09:31:38;;;;;;;12.38;6.43;;;10.80;55.50;;;;;;7414041;19;20726;-88
2022/04/10 09:37:22;;;;;;;18.30;9.27;;;10.90;56.50;;;;;;7384510;19;20027;-90
2022/04/10 09:39:55;;;;;;;11.90;7.07;;;10.90;56.20;;;;;;7437254;19;20070;-84
2022/04/10 09:46:36;;;;;;;17.70;5.80;;;10.90;55.90;;;;;;7310276;19;2004647;-84
2022/04/10 09:49:24;;;;;;;10.57;4.63;;;11.00;55.10;;;;;;7410788;19;20010;-81
2022/04/10 09:52:26;;;;;;;8.93;4.70;;;11.00;54.50;;;;;;7436530;19;20015;-84
2022/04/10 09:54:57;;;;;;;10.68;6.28;;;11.00;53.90;;;;;;7321055;19;2004486;-86
2022/04/10 09:57:26;;;;;;;11.52;5.65;;;11.10;54.20;;;;;;7440461;19;20015;-88
2022/04/10 09:59:56;;;;;;;10.93;5.05;;;11.10;54.50;;;;;;7424620;19;20014;-86
2022/04/10 10:02:25;;;;;;;11.38;5.22;;;11.20;54.70;;;;;;7415881;19;20018;-87
2022/04/10 10:05:04;;;;;;;9.88;4.65;;;11.00;53.50;;;;;;7418811;19;20006;-85
2022/04/10 10:07:34;;;;;;;8.77;4.63;;;11.00;53.00;;;;;;7407080;19;20014;-82
2022/04/10 10:10:17;;;;;;;11.45;5.10;;;11.00;53.50;;;;;;7395174;19;20035;-86
2022/04/10 10:12:47;;;;;;;13.57;5.88;;;11.10;54.00;;;;;;7412597;19;20010;-86
2022/04/10 10:15:16;;;;;;;11.32;5.75;;;11.10;54.20;;;;;;7396065;19;20014;-86
2022/04/10 10:17:46;;;;;;;13.90;8.13;;;11.20;54.60;;;;;;7392603;19;20020;-86
2022/04/10 10:20:20;;;;;;;13.60;6.60;;;11.20;54.70;;;;;;7389186;19;20043;-83
2022/04/10 10:22:49;;;;;;;9.75;4.63;;;11.20;54.40;;;;;;7386515;19;20333;-85
2022/04/10 10:25:24;;;;;;;10.38;5.32;;;11.30;54.80;;;;;;7384183;19;21022;-82
2022/04/10 10:28:29;;;;;;;12.30;5.53;;;11.30;54.00;;;;;;7385208;19;20018;-82
2022/04/10 10:31:18;;;;;;;10.85;4.82;;;11.20;52.90;;;;;;7381678;19;20082;-82
2022/04/10 10:43:47;;;;;;;11.43;5.78;;;11.30;53.50;;;;;;7376964;19;20115;-82
2022/04/10 10:53:51;;;;;;;7.43;4.33;;;11.60;53.50;;;;;;7357823;19;20013;-83
2022/04/10 10:56:34;;;;;;;11.13;5.38;;;11.80;53.80;;;;;;7376627;19;20041;-84
2022/04/10 10:59:29;;;;;;;9.63;5.22;;;11.90;53.30;;;;;;7382881;19;20010;-83
2022/04/10 11:02:24;;;;;;;8.32;5.03;;;12.00;51.30;;;;;;7391403;19;20017;-83
2022/04/10 11:04:58;;;;;;;10.10;4.53;;;12.00;51.70;;;;;;7389015;19;20100;-84
2022/04/10 11:07:38;;;;;;;10.18;4.93;;;12.10;52.30;;;;;;7384796;19;20011;-84
2022/04/10 11:10:12;;;;;;;17.63;9.88;;;12.20;52.10;;;;;;7385524;19;20018;-84
2022/04/10 11:12:55;;;;;;;12.30;6.40;;;12.30;52.00;;;;;;7409109;19;20019;-84
2022/04/10 11:15:36;;;;;;;8.63;5.00;;;12.40;52.10;;;;;;7383335;19;20321;-83
2022/04/10 11:18:39;;;;;;;9.63;5.07;;;12.60;51.70;;;;;;7381421;19;20015;-84
2022/04/10 11:21:15;;;;;;;7.28;4.60;;;12.60;51.30;;;;;;7337913;19;20030;-84
2022/04/10 11:24:00;;;;;;;9.95;4.35;;;12.60;51.70;;;;;;7379197;19;20024;-83
2022/04/10 11:26:48;;;;;;;8.13;4.70;;;12.70;51.50;;;;;;7381990;19;20015;-83
2022/04/10 11:29:26;;;;;;;5.68;3.90;;;12.50;48.70;;;;;;7384314;19;20003;-84
2022/04/10 11:32:05;;;;;;;8.02;3.75;;;12.60;48.30;;;;;;7402435;19;20039;-84
2022/04/10 11:34:34;;;;;;;6.90;3.50;;;12.70;48.80;;;;;;7405846;19;20011;-84
2022/04/10 11:37:05;;;;;;;6.32;3.08;;;12.80;49.50;;;;;;7392477;19;20134;-84
2022/04/10 11:39:38;;;;;;;6.10;3.13;;;12.90;48.90;;;;;;7412353;19;20533;-84
2022/04/10 11:42:11;;;;;;;7.35;3.33;;;12.90;48.80;;;;;;7387087;19;20588;-83
2022/04/10 11:44:42;;;;;;;9.75;3.20;;;12.90;48.60;;;;;;7387306;19;20027;-83
2022/04/10 11:47:17;;;;;;;7.47;2.92;;;12.90;48.90;;;;;;7384354;19;20038;-84
2022/04/10 11:49:59;;;;;;;6.35;2.75;;;12.90;48.90;;;;;;7383174;19;20043;-83
2022/04/10 11:52:37;;;;;;;6.32;3.25;;;12.90;50.40;;;;;;7341646;19;20493;-84
2022/04/10 11:55:18;;;;;;;5.75;3.03;;;13.00;49.70;;;;;;7382184;19;20011;-83
2022/04/10 11:58:00;;;;;;;6.05;2.45;;;13.10;48.70;;;;;;7399833;19;20403;-83
2022/04/10 12:00:58;;;;;;;5.55;2.70;;;13.20;48.60;;;;;;7377728;19;20014;-83
2022/04/10 12:04:11;;;;;;;7.38;2.70;;;13.30;48.30;;;;;;7377365;19;20049;-84
2022/04/10 12:10:25;;;;;;;6.60;2.90;;;13.40;47.20;;;;;;7275818;19;2004320;-83
2022/04/10 12:16:24;;;;;;;6.13;2.55;;;13.50;46.10;;;;;;7278594;19;2004545;-83
2022/04/10 12:19:21;;;;;;;4.35;2.50;;;13.50;45.90;;;;;;7376098;19;20022;-84
2022/04/10 12:22:15;;;;;;;4.32;2.33;;;13.60;45.50;;;;;;7370448;19;20018;-84
2022/04/10 12:25:03;;;;;;;4.28;2.50;;;13.60;45.00;;;;;;7397512;19;20067;-82
2022/04/10 12:27:43;;;;;;;6.63;2.60;;;13.70;45.00;;;;;;7377233;19;20014;-84
2022/04/10 12:30:30;;;;;;;6.88;2.58;;;13.80;45.70;;;;;;7375651;19;20692;-83
2022/04/10 12:33:13;;;;;;;13.43;3.38;;;13.80;45.40;;;;;;7375499;19;20070;-83
2022/04/10 12:35:57;;;;;;;7.13;2.95;;;13.80;44.50;;;;;;7337979;19;20498;-84
2022/04/10 12:38:43;;;;;;;3.75;2.50;;;13.90;45.40;;;;;;7377302;19;20007;-84
2022/04/10 12:41:33;;;;;;;3.80;2.33;;;14.00;45.30;;;;;;7344303;19;20011;-84
2022/04/10 12:44:11;;;;;;;6.45;2.53;;;14.10;44.40;;;;;;7376920;19;20327;-84
2022/04/10 12:47:07;;;;;;;6.90;3.30;;;14.20;45.20;;;;;;7378798;19;20082;-83
2022/04/10 12:49:44;;;;;;;4.15;2.47;;;14.30;45.00;;;;;;7336762;19;20014;-84
2022/04/10 12:52:21;;;;;;;5.20;2.72;;;14.30;44.60;;;;;;7377900;19;20097;-83
2022/04/10 12:54:53;;;;;;;7.82;2.55;;;14.40;45.60;;;;;;7407296;19;20035;-83
2022/04/10 12:57:30;;;;;;;7.07;2.60;;;14.40;43.60;;;;;;7404877;19;20003;-83
2022/04/10 12:59:59;;;;;;;4.28;2.58;;;14.50;42.70;;;;;;7405674;19;20022;-83
2022/04/10 13:02:30;;;;;;;5.63;2.63;;;14.50;41.60;;;;;;7408602;19;20113;-83
2022/04/10 13:05:00;;;;;;;7.75;2.45;;;14.60;41.60;;;;;;7406481;19;20031;-82
2022/04/10 13:07:33;;;;;;;5.82;2.72;;;14.70;42.30;;;;;;7394262;19;20011;-84
2022/04/10 13:10:17;;;;;;;7.13;3.00;;;14.80;43.10;;;;;;7383373;19;20082;-84
2022/04/10 13:12:47;;;;;;;6.28;2.90;;;14.80;43.70;;;;;;7400075;19;20017;-84
2022/04/10 13:15:31;;;;;;;4.70;2.97;;;14.80;43.80;;;;;;7379775;19;20431;-84
2022/04/10 13:18:01;;;;;;;5.65;2.90;;;14.80;44.30;;;;;;7378813;19;20046;-83
2022/04/10 13:20:31;;;;;;;5.50;2.50;;;14.90;44.70;;;;;;7376451;19;20015;-83
2022/04/10 13:23:01;;;;;;;5.78;2.72;;;15.00;44.90;;;;;;7378168;19;20090;-83
2022/04/10 13:25:36;;;;;;;6.43;2.95;;;15.10;44.40;;;;;;7376734;19;20014;-83
2022/04/10 13:28:12;;;;;;;5.10;2.60;;;15.30;43.40;;;;;;7380088;19;20031;-84
2022/04/10 13:31:10;;;;;;;4.45;2.53;;;15.40;42.40;;;;;;7400753;19;20049;-85
2022/04/10 13:34:04;;;;;;;6.35;3.13;;;15.50;42.70;;;;;;7376046;19;20118;-85
2022/04/10 13:36:53;;;;;;;5.38;2.78;;;15.60;42.60;;;;;;7377855;19;20019;-83
2022/04/10 13:43:16;;;;;;;3.88;2.70;;;15.80;41.40;;;;;;7375997;19;20019;-85
2022/04/10 13:46:05;;;;;;;3.95;2.85;;;15.80;42.00;;;;;;7279394;19;2004260;-83
2022/04/10 13:48:57;;;;;;;11.40;5.13;;;15.80;41.50;;;;;;7405968;19;20019;-84
2022/04/10 13:51:37;;;;;;;;;;;15.80;41.60;;;;;;7385770;19;20070;-84
2022/04/10 13:54:30;;;;;;;6.43;2.33;;;15.60;41.60;;;;;;7383134;19;20310;-84